Time;durP1;ratioP1;P1;durP2;ratioP2;P2;SDS_P1;SDS_P2;PMS_P1;PMS_P2;Temp;Humidity;BMP_temperature;BMP_pressure;BME280_temperature;BME280_humidity;BME280_pressure;Samples;Min_cycle;Max_cycle;Signal;HPM_P1;HPM_P2
2022/03/02 00:01:14;;;;;;;23.00;12.65;;;-4.10;99.90;;;;;;5131604;27;20050;-58
2022/03/02 00:03:41;;;;;;;29.42;16.27;;;-4.20;99.90;;;;;;5131450;27;20390;-57
2022/03/02 00:06:06;;;;;;;32.35;17.13;;;-4.30;99.90;;;;;;5131397;27;20394;-56
2022/03/02 00:08:32;;;;;;;34.10;17.67;;;-4.30;99.90;;;;;;5131270;27;20350;-58
2022/03/02 00:10:58;;;;;;;42.78;19.52;;;-4.50;99.90;;;;;;5131323;27;20148;-56
2022/03/02 00:13:23;;;;;;;30.52;17.30;;;-4.50;99.90;;;;;;5112631;28;20023;-59
2022/03/02 00:15:49;;;;;;;38.15;15.77;;;-4.40;99.90;;;;;;5112960;28;20023;-56
2022/03/02 00:18:15;;;;;;;26.60;14.60;;;-4.50;99.90;;;;;;5131528;27;20259;-58
2022/03/02 00:20:41;;;;;;;37.38;19.95;;;-4.40;99.90;;;;;;5135567;27;20023;-58
2022/03/02 00:23:06;;;;;;;37.58;19.08;;;-4.40;99.90;;;;;;5135555;27;20047;-58
2022/03/02 00:25:32;;;;;;;34.20;17.20;;;-4.30;99.90;;;;;;5135088;27;20378;-58
2022/03/02 00:27:58;;;;;;;33.28;18.38;;;-4.30;99.90;;;;;;5135514;27;20053;-58
2022/03/02 00:30:28;;;;;;;31.23;17.25;;;-4.30;99.90;;;;;;5135317;27;20031;-57
2022/03/02 00:32:57;;;;;;;26.27;15.38;;;-4.40;99.90;;;;;;5135294;27;20122;-59
2022/03/02 00:35:22;;;;;;;30.50;15.93;;;-4.40;99.90;;;;;;5135076;27;20026;-59
2022/03/02 00:37:48;;;;;;;31.73;19.63;;;-4.40;99.90;;;;;;5135341;27;20023;-59
2022/03/02 00:40:14;;;;;;;36.88;17.65;;;-4.50;99.90;;;;;;5134965;27;20066;-59
2022/03/02 00:42:39;;;;;;;29.67;17.15;;;-4.50;99.90;;;;;;5135373;27;20605;-59
2022/03/02 00:45:05;;;;;;;35.17;18.25;;;-4.50;99.90;;;;;;5135186;27;20031;-59
2022/03/02 00:47:31;;;;;;;30.27;17.55;;;-4.50;99.90;;;;;;5134972;27;20078;-59
2022/03/02 00:49:58;;;;;;;23.75;17.55;;;-4.40;99.90;;;;;;5135225;27;20063;-59
2022/03/02 00:52:23;;;;;;;25.13;16.20;;;-4.50;99.90;;;;;;5134924;27;20050;-59
2022/03/02 00:54:49;;;;;;;21.20;14.65;;;-4.50;99.90;;;;;;5116254;27;20027;-58
2022/03/02 00:57:15;;;;;;;28.30;16.90;;;-4.50;99.90;;;;;;5134799;27;20023;-58
2022/03/02 00:59:41;;;;;;;26.42;15.23;;;-4.60;99.90;;;;;;5134811;27;20019;-59
2022/03/02 01:02:06;;;;;;;24.10;15.18;;;-4.60;99.90;;;;;;5135058;27;20019;-59
2022/03/02 01:04:32;;;;;;;28.08;17.63;;;-4.60;99.90;;;;;;5134748;27;20031;-59
2022/03/02 01:06:58;;;;;;;32.47;19.98;;;-4.50;99.90;;;;;;5134749;27;20500;-60
2022/03/02 01:09:24;;;;;;;31.45;20.30;;;-4.60;99.90;;;;;;5116074;27;20050;-59
2022/03/02 01:11:50;;;;;;;29.80;18.75;;;-4.60;99.90;;;;;;5134734;27;20024;-59
2022/03/02 01:14:15;;;;;;;35.30;20.25;;;-4.60;99.90;;;;;;5134294;27;20027;-56
2022/03/02 01:16:41;;;;;;;30.77;18.05;;;-4.70;99.90;;;;;;5134562;27;20450;-59
2022/03/02 01:19:07;;;;;;;29.83;20.10;;;-4.70;99.90;;;;;;5134400;27;20510;-58
2022/03/02 01:21:33;;;;;;;33.13;18.95;;;-4.70;99.90;;;;;;5134429;27;20163;-59
2022/03/02 01:23:59;;;;;;;26.33;17.30;;;-4.70;99.90;;;;;;5134290;27;20050;-59
2022/03/02 01:26:25;;;;;;;26.65;15.75;;;-4.70;99.90;;;;;;5134269;27;20027;-59
2022/03/02 01:28:54;;;;;;;33.42;18.50;;;-4.70;99.90;;;;;;5134351;27;20114;-59
2022/03/02 01:31:24;;;;;;;27.25;17.25;;;-4.70;99.90;;;;;;5133380;27;20019;-55
2022/03/02 01:33:50;;;;;;;29.27;17.85;;;-4.70;99.90;;;;;;5134067;27;20027;-59
2022/03/02 01:36:17;;;;;;;30.10;17.42;;;-4.80;99.90;;;;;;5134138;27;20065;-58
2022/03/02 01:38:42;;;;;;;28.63;16.70;;;-4.80;99.90;;;;;;5115634;27;20269;-59
2022/03/02 01:41:09;;;;;;;31.73;17.98;;;-4.90;99.90;;;;;;5133737;27;20470;-59
2022/03/02 01:43:35;;;;;;;28.42;16.40;;;-4.90;99.90;;;;;;5133991;27;20047;-59
2022/03/02 01:46:00;;;;;;;30.17;17.02;;;-4.80;99.90;;;;;;5134024;27;20051;-58
2022/03/02 01:48:26;;;;;;;35.75;19.50;;;-4.90;99.90;;;;;;5133862;27;20068;-59
2022/03/02 01:50:52;;;;;;;31.25;17.77;;;-4.90;99.90;;;;;;5133945;27;20075;-58
2022/03/02 01:53:17;;;;;;;34.25;20.15;;;-4.90;99.90;;;;;;5115067;27;20031;-59
2022/03/02 01:55:43;;;;;;;33.35;17.63;;;-5.00;99.90;;;;;;5133683;27;20028;-59
2022/03/02 01:58:10;;;;;;;25.88;18.52;;;-5.00;99.90;;;;;;5133866;27;20035;-59
2022/03/02 02:00:36;;;;;;;27.48;17.67;;;-5.10;99.90;;;;;;5133488;27;20023;-59
2022/03/02 02:03:02;;;;;;;24.83;16.27;;;-5.00;99.90;;;;;;5133709;27;20113;-56
2022/03/02 02:05:28;;;;;;;28.55;17.35;;;-5.10;99.90;;;;;;5133376;27;20108;-59
2022/03/02 02:07:53;;;;;;;30.85;18.15;;;-5.10;99.90;;;;;;5115177;27;20545;-57
2022/03/02 02:10:19;;;;;;;38.63;21.15;;;-5.20;99.90;;;;;;5133376;27;20031;-59
2022/03/02 02:12:45;;;;;;;31.60;18.92;;;-5.20;99.90;;;;;;5133365;27;20047;-58
2022/03/02 02:15:11;;;;;;;31.55;18.98;;;-5.10;99.90;;;;;;5133439;27;20091;-60
2022/03/02 02:17:37;;;;;;;37.72;17.85;;;-5.10;99.90;;;;;;5111127;28;20039;-59
2022/03/02 02:20:06;;;;;;;33.85;19.00;;;-5.10;99.90;;;;;;5111479;28;20386;-57
2022/03/02 02:22:36;;;;;;;43.78;22.02;;;-5.10;99.90;;;;;;5111243;28;20471;-58
2022/03/02 02:25:03;;;;;;;33.60;18.50;;;-5.10;99.90;;;;;;5112749;28;20031;-58
2022/03/02 02:27:29;;;;;;;39.55;20.20;;;-5.00;99.90;;;;;;5112448;28;20394;-59
2022/03/02 02:29:55;;;;;;;33.10;17.67;;;-5.10;99.90;;;;;;5112634;28;20028;-59
2022/03/02 02:32:21;;;;;;;30.15;19.45;;;-5.20;99.90;;;;;;5112516;28;20418;-59
2022/03/02 02:34:47;;;;;;;33.83;19.63;;;-5.20;99.90;;;;;;5112319;28;20108;-59
2022/03/02 02:37:13;;;;;;;38.58;21.63;;;-5.20;99.90;;;;;;5112490;28;20016;-59
2022/03/02 02:39:39;;;;;;;52.88;21.50;;;-5.20;99.90;;;;;;5110880;28;20031;-58
2022/03/02 02:42:07;;;;;;;37.55;20.27;;;-5.20;99.90;;;;;;5111225;28;20024;-59
2022/03/02 02:44:34;;;;;;;34.15;18.70;;;-5.20;99.90;;;;;;5112291;28;20449;-58
2022/03/02 02:46:59;;;;;;;36.75;21.42;;;-5.20;99.90;;;;;;5112162;28;20053;-55
2022/03/02 02:49:25;;;;;;;30.33;18.40;;;-5.20;99.90;;;;;;5112089;28;20098;-59
2022/03/02 02:51:53;;;;;;;28.60;17.08;;;-5.20;99.90;;;;;;5112095;28;20020;-59
2022/03/02 02:54:20;;;;;;;30.60;17.65;;;-5.30;99.90;;;;;;5111984;28;20385;-59
2022/03/02 02:56:46;;;;;;;30.42;18.35;;;-5.30;99.90;;;;;;5112083;28;20012;-58
2022/03/02 02:59:11;;;;;;;39.53;18.13;;;-5.30;99.90;;;;;;5112068;28;20470;-59
2022/03/02 03:01:37;;;;;;;29.08;16.77;;;-5.30;99.90;;;;;;5111739;28;20040;-57
2022/03/02 03:04:06;;;;;;;31.50;16.95;;;-5.40;99.90;;;;;;5111921;28;20028;-59
2022/03/02 03:06:32;;;;;;;27.27;17.20;;;-5.40;99.90;;;;;;5111884;28;20451;-59
2022/03/02 03:08:58;;;;;;;35.28;19.20;;;-5.40;99.90;;;;;;5112093;28;20432;-59
2022/03/02 03:11:23;;;;;;;31.33;17.83;;;-5.40;99.90;;;;;;5111661;28;20027;-59
2022/03/02 03:13:49;;;;;;;32.67;17.83;;;-5.40;99.90;;;;;;5111635;28;20024;-59
2022/03/02 03:16:15;;;;;;;39.95;17.42;;;-5.50;99.90;;;;;;5111658;28;20382;-58
2022/03/02 03:18:40;;;;;;;32.45;17.95;;;-5.60;99.90;;;;;;5110092;28;20575;-58
2022/03/02 03:21:06;;;;;;;38.25;18.45;;;-5.60;99.90;;;;;;5111599;28;20543;-59
2022/03/02 03:23:31;;;;;;;27.27;18.02;;;-5.70;99.90;;;;;;5111453;28;20545;-59
2022/03/02 03:25:57;;;;;;;39.95;21.77;;;-5.70;99.90;;;;;;5111457;28;20058;-60
2022/03/02 03:28:23;;;;;;;28.17;17.15;;;-5.80;99.90;;;;;;5111350;28;20024;-59
2022/03/02 03:30:48;;;;;;;32.28;18.25;;;-5.70;99.90;;;;;;5111490;28;20028;-59
2022/03/02 03:33:14;;;;;;;27.27;16.65;;;-5.70;99.90;;;;;;5111407;28;20280;-58
2022/03/02 03:35:40;;;;;;;31.70;17.95;;;-5.70;99.90;;;;;;5111434;28;20043;-57
2022/03/02 03:38:05;;;;;;;36.10;20.13;;;-5.80;99.90;;;;;;5110052;28;20486;-59
2022/03/02 03:40:31;;;;;;;37.05;20.45;;;-5.80;99.90;;;;;;5110987;28;20027;-59
2022/03/02 03:42:57;;;;;;;40.45;20.50;;;-5.80;99.90;;;;;;5111419;28;20024;-59
2022/03/02 03:45:23;;;;;;;45.40;20.98;;;-5.80;99.90;;;;;;5109615;28;20023;-59
2022/03/02 03:47:50;;;;;;;38.30;18.85;;;-5.80;99.90;;;;;;5111233;28;20494;-59
2022/03/02 03:50:16;;;;;;;36.42;19.40;;;-5.80;99.90;;;;;;5111156;28;20454;-58
2022/03/02 03:52:42;;;;;;;38.47;20.60;;;-5.80;99.90;;;;;;5110971;28;20386;-58
2022/03/02 03:55:09;;;;;;;37.10;18.88;;;-5.80;99.90;;;;;;5110896;28;20016;-58
2022/03/02 03:57:36;;;;;;;35.13;19.63;;;-5.90;99.90;;;;;;5109570;28;20118;-57
2022/03/02 04:00:04;;;;;;;32.58;18.55;;;-5.90;99.90;;;;;;5110941;28;20081;-59
2022/03/02 04:02:30;;;;;;;29.05;17.55;;;-6.00;99.90;;;;;;5109484;28;20055;-59
2022/03/02 04:04:55;;;;;;;35.65;18.65;;;-6.00;99.90;;;;;;5111085;28;20427;-59
2022/03/02 04:07:21;;;;;;;28.10;18.13;;;-6.00;99.90;;;;;;5110771;28;20035;-59
2022/03/02 04:09:46;;;;;;;24.67;16.08;;;-6.00;99.90;;;;;;5110894;28;20023;-59
2022/03/02 04:12:12;;;;;;;33.17;18.15;;;-6.00;99.90;;;;;;5110944;28;20024;-59
2022/03/02 04:14:38;;;;;;;29.73;17.17;;;-6.00;99.90;;;;;;5110398;28;20023;-58
2022/03/02 04:17:04;;;;;;;37.45;18.05;;;-6.00;99.90;;;;;;5110901;28;20015;-58
2022/03/02 04:19:30;;;;;;;35.30;18.30;;;-6.00;99.90;;;;;;5110542;28;20104;-58
2022/03/02 04:21:56;;;;;;;35.63;18.83;;;-6.00;99.90;;;;;;5110854;28;20032;-56
2022/03/02 04:24:27;;;;;;;26.55;16.83;;;-6.00;99.90;;;;;;5110583;28;20059;-58
2022/03/02 04:26:53;;;;;;;26.52;17.27;;;-6.00;99.90;;;;;;5110855;28;20027;-58
2022/03/02 04:29:19;;;;;;;38.97;17.98;;;-6.10;99.90;;;;;;5110438;28;20024;-59
2022/03/02 04:31:44;;;;;;;28.77;16.45;;;-6.10;99.90;;;;;;5110617;28;20020;-58
2022/03/02 04:34:10;;;;;;;27.85;15.98;;;-6.10;99.90;;;;;;5110586;28;20080;-58
2022/03/02 04:36:36;;;;;;;26.38;15.35;;;-6.10;99.90;;;;;;5110413;28;20023;-59
2022/03/02 04:39:02;;;;;;;23.35;15.50;;;-6.10;99.90;;;;;;5110687;28;20505;-59
2022/03/02 04:41:28;;;;;;;29.63;17.60;;;-6.10;99.90;;;;;;5110530;28;20019;-59
2022/03/02 04:43:54;;;;;;;41.28;16.65;;;-6.10;99.90;;;;;;5110479;28;20016;-59
2022/03/02 04:46:19;;;;;;;26.30;15.35;;;-6.10;99.90;;;;;;5109143;28;20347;-58
2022/03/02 04:48:45;;;;;;;30.40;16.73;;;-6.10;99.90;;;;;;5109332;28;20020;-59
2022/03/02 04:51:11;;;;;;;24.30;15.10;;;-6.00;99.90;;;;;;5110401;28;20028;-59
2022/03/02 04:53:37;;;;;;;24.15;14.63;;;-6.00;99.90;;;;;;5110394;28;20438;-59
2022/03/02 04:56:03;;;;;;;23.88;13.45;;;-6.20;99.90;;;;;;5110290;28;20035;-59
2022/03/02 04:58:28;;;;;;;24.15;15.43;;;-6.20;99.90;;;;;;5110127;28;20034;-57
2022/03/02 05:00:55;;;;;;;27.30;15.85;;;-6.20;99.90;;;;;;5110430;28;20102;-57
2022/03/02 05:03:20;;;;;;;25.95;15.73;;;-6.20;99.90;;;;;;5110135;28;20541;-57
2022/03/02 05:05:46;;;;;;;29.17;15.20;;;-6.10;99.90;;;;;;5110550;28;20063;-57
2022/03/02 05:08:12;;;;;;;34.22;17.83;;;-6.10;99.90;;;;;;5114248;28;20023;-57
2022/03/02 05:10:37;;;;;;;29.83;14.30;;;-6.10;99.90;;;;;;5114425;28;20031;-58
2022/03/02 05:13:03;;;;;;;25.30;15.85;;;-6.10;99.90;;;;;;5114090;28;20020;-58
2022/03/02 05:15:30;;;;;;;30.02;14.65;;;-6.10;99.90;;;;;;5113700;28;20098;-58
2022/03/02 05:17:58;;;;;;;26.50;14.75;;;-6.10;99.90;;;;;;5121167;27;20043;-59
2022/03/02 05:20:24;;;;;;;28.63;15.23;;;-6.10;99.90;;;;;;5115910;27;20023;-57
2022/03/02 05:22:50;;;;;;;33.22;16.08;;;-6.10;99.90;;;;;;5116047;27;20069;-56
2022/03/02 05:25:17;;;;;;;47.50;19.70;;;-6.20;99.90;;;;;;5134261;27;20022;-58
2022/03/02 05:27:44;;;;;;;305.65;82.13;;;-6.30;99.90;;;;;;5134285;27;20103;-54
2022/03/02 05:30:11;;;;;;;226.55;58.20;;;-6.30;99.90;;;;;;5115796;27;20027;-52
2022/03/02 05:32:37;;;;;;;98.43;34.78;;;-6.30;99.90;;;;;;5133986;27;20092;-56
2022/03/02 05:35:04;;;;;;;77.75;27.13;;;-6.30;99.90;;;;;;5134320;27;20110;-53
2022/03/02 05:37:30;;;;;;;75.63;28.50;;;-6.30;99.90;;;;;;5134024;27;20408;-58
2022/03/02 05:39:55;;;;;;;81.95;25.73;;;-6.30;99.90;;;;;;5134015;27;20119;-59
2022/03/02 05:42:21;;;;;;;82.13;30.48;;;-6.30;99.90;;;;;;5133873;27;20026;-58
2022/03/02 05:44:47;;;;;;;82.22;28.30;;;-6.30;99.90;;;;;;5134030;27;20019;-56
2022/03/02 05:47:13;;;;;;;124.90;35.40;;;-6.20;99.90;;;;;;5133914;27;20031;-58
2022/03/02 05:49:39;;;;;;;96.47;31.98;;;-6.20;99.90;;;;;;5133824;27;20027;-56
2022/03/02 05:52:05;;;;;;;124.18;35.28;;;-6.20;99.90;;;;;;5133941;27;20034;-58
2022/03/02 05:54:31;;;;;;;76.10;24.52;;;-6.20;99.90;;;;;;5133470;27;20122;-54
2022/03/02 05:56:56;;;;;;;64.10;22.95;;;-6.20;99.90;;;;;;5133881;27;20107;-58
2022/03/02 05:59:22;;;;;;;58.28;24.15;;;-6.20;99.90;;;;;;5133477;27;20470;-55
2022/03/02 06:01:49;;;;;;;38.72;21.40;;;-6.20;99.90;;;;;;5133700;27;20374;-54
2022/03/02 06:04:15;;;;;;;37.92;19.40;;;-6.20;99.90;;;;;;5133611;27;20389;-57
2022/03/02 06:06:41;;;;;;;33.08;18.52;;;-6.10;99.90;;;;;;5115030;27;20031;-58
2022/03/02 06:09:08;;;;;;;41.80;21.50;;;-6.10;99.90;;;;;;5133460;27;20028;-56
2022/03/02 06:11:37;;;;;;;38.95;18.38;;;-6.10;99.90;;;;;;5133532;27;20075;-57
2022/03/02 06:14:03;;;;;;;32.58;16.65;;;-6.00;99.90;;;;;;5133337;27;20385;-57
2022/03/02 06:16:29;;;;;;;31.77;16.65;;;-6.00;99.90;;;;;;5133052;27;20019;-53
2022/03/02 06:18:55;;;;;;;29.23;16.25;;;-6.00;99.90;;;;;;5133339;27;20031;-58
2022/03/02 06:21:27;;;;;;;33.78;16.83;;;-6.00;99.90;;;;;;5133137;27;20031;-58
2022/03/02 06:23:53;;;;;;;44.67;20.80;;;-5.90;99.90;;;;;;5133332;27;20019;-59
2022/03/02 06:26:19;;;;;;;30.63;18.27;;;-5.80;99.90;;;;;;5133127;27;20012;-59
2022/03/02 06:28:45;;;;;;;32.25;17.80;;;-5.80;99.90;;;;;;5114701;27;20549;-57
2022/03/02 06:31:13;;;;;;;28.00;17.17;;;-5.70;99.90;;;;;;5132942;27;20102;-59
2022/03/02 06:33:39;;;;;;;30.42;17.08;;;-5.70;99.90;;;;;;5133111;27;20056;-58
2022/03/02 06:36:05;;;;;;;39.33;16.33;;;-5.60;99.90;;;;;;5132984;27;20416;-58
2022/03/02 06:38:31;;;;;;;45.63;19.15;;;-5.50;99.90;;;;;;5114397;27;20109;-58
2022/03/02 06:41:02;;;;;;;28.60;16.92;;;-5.50;99.90;;;;;;5132993;27;20469;-54
2022/03/02 06:43:51;;;;;;;30.60;17.98;;;-5.40;99.90;;;;;;5132881;27;20393;-55
2022/03/02 06:46:50;;;;;;;71.53;23.83;;;-5.20;99.90;;;;;;5132696;27;20042;-56
2022/03/02 06:49:21;;;;;;;32.92;19.83;;;-5.10;99.90;;;;;;5097943;27;20046;-54
2022/03/02 06:51:47;;;;;;;35.03;15.90;;;-5.00;99.90;;;;;;5132737;27;20023;-57
2022/03/02 06:54:18;;;;;;;23.60;15.45;;;-4.90;99.90;;;;;;5132677;27;20027;-59
2022/03/02 06:56:49;;;;;;;27.70;16.05;;;-4.80;99.90;;;;;;5132551;27;20101;-58
2022/03/02 06:59:26;;;;;;;26.55;15.07;;;-4.60;99.90;;;;;;5132481;27;20026;-57
2022/03/02 07:01:52;;;;;;;32.92;17.95;;;-4.40;99.90;;;;;;5114047;27;20019;-59
2022/03/02 07:04:20;;;;;;;27.75;18.38;;;-4.20;99.90;;;;;;5132374;27;20034;-57
2022/03/02 07:06:46;;;;;;;30.40;16.30;;;-4.00;99.90;;;;;;5132330;27;20102;-59
2022/03/02 07:09:13;;;;;;;25.48;16.48;;;-3.70;99.90;;;;;;5132472;27;20432;-58
2022/03/02 07:11:40;;;;;;;31.23;16.23;;;-3.40;99.90;;;;;;5132118;27;20050;-59
2022/03/02 07:14:08;;;;;;;23.27;14.23;;;-3.00;99.90;;;;;;5132305;27;20114;-57
2022/03/02 07:16:35;;;;;;;26.45;15.82;;;-2.70;99.90;;;;;;5131995;27;20019;-59
2022/03/02 07:19:00;;;;;;;24.17;14.07;;;-2.40;99.90;;;;;;5132167;27;20084;-58
2022/03/02 07:21:29;;;;;;;23.55;14.82;;;-2.10;99.90;;;;;;5131864;27;20027;-60
2022/03/02 07:24:01;;;;;;;340.35;169.30;;;-1.90;99.90;;;;;;5132282;27;20381;-59
2022/03/02 07:26:28;;;;;;;920.58;471.40;;;-1.70;99.90;;;;;;5131928;27;20022;-58
2022/03/02 07:28:54;;;;;;;216.25;123.50;;;-1.60;99.90;;;;;;5131490;27;20068;-59
2022/03/02 07:31:22;;;;;;;180.50;103.53;;;-1.40;99.90;;;;;;5131976;27;20023;-57
2022/03/02 07:33:51;;;;;;;76.28;47.45;;;-1.30;99.90;;;;;;5132003;27;20497;-58
2022/03/02 07:36:20;;;;;;;149.82;82.30;;;-1.20;99.90;;;;;;5131717;27;20077;-59
2022/03/02 07:38:46;;;;;;;59.15;38.42;;;-1.10;99.90;;;;;;5131644;27;20022;-58
2022/03/02 07:41:12;;;;;;;28.92;19.33;;;-1.00;99.90;;;;;;5113377;27;20359;-59
2022/03/02 07:43:39;;;;;;;31.45;16.63;;;-1.00;99.90;;;;;;5131481;27;20023;-59
2022/03/02 07:46:06;;;;;;;27.88;18.90;;;-0.90;99.90;;;;;;5131831;27;20390;-59
2022/03/02 07:48:32;;;;;;;30.83;17.95;;;-0.80;99.90;;;;;;5131497;27;20023;-59
2022/03/02 07:51:00;;;;;;;25.00;17.30;;;-0.60;99.90;;;;;;5131548;27;20022;-59
2022/03/02 07:53:31;;;;;;;29.83;17.08;;;-0.40;99.90;;;;;;5131420;27;20022;-59
2022/03/02 07:55:58;;;;;;;30.35;15.93;;;-0.30;99.90;;;;;;5131691;27;20442;-58
2022/03/02 07:58:24;;;;;;;25.55;15.85;;;-0.10;99.90;;;;;;5131607;27;20109;-58
2022/03/02 08:00:54;;;;;;;31.38;15.63;;;0.10;99.90;;;;;;5131406;27;20019;-59
2022/03/02 08:03:25;;;;;;;25.73;13.90;;;0.40;99.90;;;;;;5131552;27;20273;-59
2022/03/02 08:05:51;;;;;;;23.38;14.95;;;0.60;99.90;;;;;;5131554;27;20099;-59
2022/03/02 08:08:17;;;;;;;21.35;14.05;;;0.60;99.90;;;;;;5131289;27;20042;-59
2022/03/02 08:10:44;;;;;;;21.15;13.90;;;0.80;99.90;;;;;;5131345;27;20023;-59
2022/03/02 08:13:14;;;;;;;20.90;13.57;;;1.00;99.90;;;;;;5131490;27;20023;-58
2022/03/02 08:15:41;;;;;;;22.38;14.60;;;1.30;99.90;;;;;;5112714;28;20076;-59
2022/03/02 08:18:06;;;;;;;26.40;13.40;;;1.60;99.90;;;;;;5131338;28;20043;-60
2022/03/02 08:20:35;;;;;;;26.15;14.10;;;1.90;99.90;;;;;;5112726;28;20570;-59
2022/03/02 08:23:04;;;;;;;22.05;11.93;;;2.10;99.90;;;;;;5131248;28;20015;-59
2022/03/02 08:25:32;;;;;;;16.83;12.18;;;2.20;99.80;;;;;;5131116;28;20032;-59
2022/03/02 08:28:01;;;;;;;25.08;12.43;;;2.40;99.80;;;;;;5131180;28;20023;-59
2022/03/02 08:30:30;;;;;;;16.23;11.07;;;2.50;99.70;;;;;;5131033;28;20173;-58
2022/03/02 08:33:00;;;;;;;28.02;11.80;;;2.60;99.00;;;;;;5131265;28;20386;-59
2022/03/02 08:35:26;;;;;;;24.38;11.52;;;2.70;99.00;;;;;;5131053;28;20078;-59
2022/03/02 08:37:51;;;;;;;19.52;11.18;;;2.70;97.40;;;;;;5131136;28;20058;-58
2022/03/02 08:40:17;;;;;;;19.45;11.50;;;2.60;96.60;;;;;;5131557;27;20031;-59
2022/03/02 08:42:44;;;;;;;24.33;15.40;;;2.60;97.90;;;;;;5135655;27;20370;-59
2022/03/02 08:45:10;;;;;;;15.05;9.50;;;2.80;97.90;;;;;;5116650;27;20054;-58
2022/03/02 08:47:36;;;;;;;16.70;8.73;;;2.80;96.00;;;;;;5135207;27;20492;-59
2022/03/02 08:50:04;;;;;;;16.85;9.20;;;2.70;94.00;;;;;;5135100;27;20019;-58
2022/03/02 08:52:33;;;;;;;16.13;8.45;;;2.70;93.70;;;;;;5135079;27;20382;-60
2022/03/02 08:55:01;;;;;;;14.25;8.73;;;2.70;93.70;;;;;;5134925;27;20023;-59
2022/03/02 08:57:27;;;;;;;20.88;9.70;;;2.70;93.50;;;;;;5135104;27;20034;-59
2022/03/02 08:59:53;;;;;;;13.43;8.63;;;2.80;92.60;;;;;;5135083;27;20035;-59
2022/03/02 09:02:24;;;;;;;12.70;7.22;;;2.80;91.90;;;;;;5116227;27;20370;-58
2022/03/02 09:04:50;;;;;;;13.57;9.18;;;2.80;91.50;;;;;;5134765;27;20474;-59
2022/03/02 09:07:18;;;;;;;23.42;16.77;;;2.80;92.60;;;;;;5134757;27;20043;-59
2022/03/02 09:09:44;;;;;;;25.52;11.30;;;2.90;91.70;;;;;;5134823;27;20023;-59
2022/03/02 09:12:09;;;;;;;27.33;12.57;;;2.80;91.50;;;;;;5134694;27;20104;-60
2022/03/02 09:14:37;;;;;;;20.33;9.73;;;2.80;90.70;;;;;;5134460;27;20031;-59
2022/03/02 09:17:03;;;;;;;24.08;10.35;;;2.90;91.70;;;;;;5134627;27;20041;-59
2022/03/02 09:19:29;;;;;;;16.13;10.02;;;3.00;91.50;;;;;;5134594;27;20027;-60
2022/03/02 09:21:56;;;;;;;27.77;11.35;;;3.30;91.60;;;;;;5134722;27;20023;-60
2022/03/02 09:24:22;;;;;;;15.32;7.95;;;3.50;88.30;;;;;;5134305;27;20521;-60
2022/03/02 09:26:50;;;;;;;18.15;9.43;;;3.80;87.60;;;;;;5134445;27;20106;-59
2022/03/02 09:29:17;;;;;;;21.35;14.55;;;3.80;86.70;;;;;;5134324;27;20031;-60
2022/03/02 09:31:49;;;;;;;12.13;8.27;;;3.80;85.50;;;;;;5134152;27;20027;-60
2022/03/02 09:34:15;;;;;;;14.00;8.18;;;3.80;84.40;;;;;;5134146;27;20236;-59
2022/03/02 09:36:42;;;;;;;13.57;8.45;;;3.80;85.10;;;;;;5134107;27;20072;-59
2022/03/02 09:39:09;;;;;;;18.40;8.98;;;3.60;83.70;;;;;;5134216;27;20011;-60
2022/03/02 09:41:38;;;;;;;11.77;8.88;;;3.50;82.60;;;;;;5133949;27;20451;-59
2022/03/02 09:44:05;;;;;;;13.02;9.18;;;3.60;85.10;;;;;;5134155;27;20076;-59
2022/03/02 09:46:35;;;;;;;14.88;10.52;;;3.80;85.70;;;;;;5133796;27;20477;-60
2022/03/02 09:49:06;;;;;;;21.20;8.27;;;4.00;83.40;;;;;;5133939;27;20020;-60
2022/03/02 09:51:33;;;;;;;14.43;8.65;;;4.30;85.50;;;;;;5133074;27;20377;-59
2022/03/02 09:54:01;;;;;;;18.48;8.93;;;4.60;85.90;;;;;;5115496;27;20470;-59
2022/03/02 09:56:48;;;;;;;29.05;10.48;;;4.80;85.50;;;;;;5133689;27;20073;-59
2022/03/02 09:59:17;;;;;;;14.93;9.15;;;5.00;81.40;;;;;;5133698;27;20408;-59
2022/03/02 10:01:44;;;;;;;14.48;8.43;;;5.10;81.90;;;;;;5133717;27;20529;-60
2022/03/02 10:04:24;;;;;;;14.63;9.68;;;5.50;77.50;;;;;;5133828;27;20359;-59
2022/03/02 10:07:26;;;;;;;23.52;9.75;;;5.50;75.80;;;;;;5133576;27;20011;-59
2022/03/02 10:09:45;;;;;;;13.02;8.57;;;5.70;74.20;;;;;;5133366;27;20027;-60
2022/03/02 10:12:14;;;;;;;14.65;8.35;;;5.70;71.80;;;;;;5133687;27;20023;-60
2022/03/02 10:14:41;;;;;;;12.95;8.80;;;5.80;68.60;;;;;;5133318;27;20015;-59
2022/03/02 10:17:10;;;;;;;9.98;7.43;;;5.90;66.90;;;;;;5133164;27;20474;-60
2022/03/02 10:19:41;;;;;;;12.23;7.97;;;6.00;66.50;;;;;;5133111;27;20574;-60
2022/03/02 10:22:39;;;;;;;12.27;9.10;;;6.10;67.30;;;;;;5133405;27;20399;-60
2022/03/02 10:25:06;;;;;;;74.22;13.07;;;6.00;67.80;;;;;;5114779;27;20139;-60
2022/03/02 10:28:00;;;;;;;15.50;8.13;;;6.10;70.40;;;;;;5132971;27;20033;-59
2022/03/02 10:30:31;;;;;;;34.00;9.02;;;6.50;64.50;;;;;;5132587;27;20111;-60
2022/03/02 10:33:08;;;;;;;16.60;8.05;;;6.00;64.30;;;;;;5114400;27;20035;-60
2022/03/02 10:35:39;;;;;;;14.20;7.93;;;6.20;65.50;;;;;;5133145;27;20114;-60
2022/03/02 10:38:06;;;;;;;12.20;8.10;;;7.00;65.50;;;;;;5133187;27;20011;-60
2022/03/02 10:40:33;;;;;;;14.95;8.35;;;7.90;64.30;;;;;;5132850;27;20023;-60
2022/03/02 10:43:05;;;;;;;13.57;7.95;;;9.00;60.90;;;;;;5133071;27;20020;-60
2022/03/02 10:45:49;;;;;;;10.68;7.97;;;10.50;56.30;;;;;;5132858;27;20072;-60
2022/03/02 10:48:43;;;;;;;11.25;7.30;;;11.40;51.30;;;;;;5132913;27;20023;-60
2022/03/02 10:51:11;;;;;;;10.52;7.60;;;12.50;45.60;;;;;;5084309;27;20478;-61
2022/03/02 10:53:38;;;;;;;19.85;9.68;;;13.40;44.00;;;;;;5132714;27;20401;-61
2022/03/02 10:56:05;;;;;;;10.63;7.13;;;13.30;42.90;;;;;;5132607;27;20110;-61
2022/03/02 10:58:31;;;;;;;18.23;8.35;;;14.00;40.90;;;;;;5132574;27;20065;-61
2022/03/02 11:01:01;;;;;;;21.83;7.60;;;13.90;40.70;;;;;;5132643;27;20084;-61
2022/03/02 11:03:28;;;;;;;19.00;8.20;;;13.90;38.80;;;;;;5131358;27;20019;-61
2022/03/02 11:05:59;;;;;;;8.45;6.57;;;14.20;39.10;;;;;;5132247;27;20110;-62
2022/03/02 11:08:25;;;;;;;15.95;7.47;;;15.40;37.80;;;;;;5132430;27;20026;-61
2022/03/02 11:10:51;;;;;;;11.30;6.95;;;15.40;35.70;;;;;;5132496;27;20424;-61
2022/03/02 11:13:16;;;;;;;13.27;7.03;;;15.00;36.20;;;;;;5132209;27;20061;-61
2022/03/02 11:16:04;;;;;;;9.90;6.00;;;14.40;35.20;;;;;;5132255;27;20470;-61
2022/03/02 11:18:37;;;;;;;12.25;7.03;;;14.40;35.30;;;;;;5131879;27;20046;-61
2022/03/02 11:21:06;;;;;;;16.23;7.03;;;14.00;36.50;;;;;;5132273;27;20529;-61
2022/03/02 11:23:39;;;;;;;11.95;6.63;;;13.80;37.20;;;;;;5132113;27;20015;-61
2022/03/02 11:26:08;;;;;;;10.50;5.93;;;14.10;36.50;;;;;;5132151;27;20227;-61
2022/03/02 11:28:35;;;;;;;12.23;6.38;;;13.90;33.80;;;;;;5132130;27;20038;-61
2022/03/02 11:31:07;;;;;;;10.88;6.88;;;13.00;35.20;;;;;;5132127;27;20023;-61
2022/03/02 11:33:32;;;;;;;9.15;5.50;;;12.90;36.30;;;;;;5131889;27;20027;-61
2022/03/02 11:36:17;;;;;;;7.60;5.85;;;13.40;37.30;;;;;;5131850;27;20033;-61
2022/03/02 11:38:45;;;;;;;9.07;5.78;;;13.80;37.00;;;;;;5131764;27;20015;-61
2022/03/02 11:41:13;;;;;;;10.20;6.97;;;14.10;36.50;;;;;;5131913;27;20284;-61
2022/03/02 11:43:40;;;;;;;13.15;6.35;;;14.90;36.20;;;;;;5131752;27;20079;-62
2022/03/02 11:46:09;;;;;;;10.50;6.45;;;14.70;35.10;;;;;;5131809;27;20019;-61
2022/03/02 11:48:42;;;;;;;9.77;5.80;;;14.70;33.50;;;;;;5131695;27;20076;-61
2022/03/02 11:51:12;;;;;;;8.90;5.90;;;14.70;35.40;;;;;;5131847;27;20084;-61
2022/03/02 11:53:38;;;;;;;14.30;5.53;;;15.50;35.10;;;;;;5131405;27;20026;-61
2022/03/02 11:56:05;;;;;;;9.50;5.32;;;15.60;34.00;;;;;;5131515;27;20051;-61
2022/03/02 11:59:02;;;;;;;7.03;5.13;;;15.10;34.40;;;;;;5131575;27;20069;-62
2022/03/02 12:01:38;;;;;;;6.78;5.57;;;15.80;33.60;;;;;;5131366;27;20019;-62
2022/03/02 12:04:06;;;;;;;8.88;5.72;;;15.80;33.30;;;;;;5131537;27;20373;-61
2022/03/02 12:06:40;;;;;;;11.20;5.63;;;16.50;30.40;;;;;;5131392;27;20072;-61
2022/03/02 12:09:05;;;;;;;13.25;5.30;;;16.20;30.50;;;;;;5131443;27;20122;-61
2022/03/02 12:11:38;;;;;;;10.88;5.05;;;16.60;30.60;;;;;;5131222;27;20128;-61
2022/03/02 12:14:09;;;;;;;8.43;5.25;;;16.40;30.00;;;;;;5131040;27;20027;-61
2022/03/02 12:16:46;;;;;;;8.68;6.25;;;17.30;29.90;;;;;;5131284;27;20304;-62
2022/03/02 12:19:22;;;;;;;8.65;5.63;;;16.90;29.40;;;;;;5112894;28;20066;-61
2022/03/02 12:21:49;;;;;;;19.77;6.57;;;17.90;29.50;;;;;;5131315;28;20386;-61
2022/03/02 12:24:32;;;;;;;8.85;4.82;;;18.50;28.20;;;;;;5131347;28;20029;-62
2022/03/02 12:27:10;;;;;;;26.58;6.18;;;18.90;27.90;;;;;;5131507;28;20359;-61
2022/03/02 12:29:41;;;;;;;32.45;7.85;;;18.70;27.50;;;;;;5131272;28;20051;-62
2022/03/02 12:32:17;;;;;;;20.80;6.00;;;18.20;27.40;;;;;;5131290;28;20424;-61
2022/03/02 12:34:46;;;;;;;13.23;5.50;;;18.00;28.50;;;;;;5130930;28;20024;-62